메인 페이지
METAR-TAF:

METAR-TAF

공항 :

Naval Auxiliary Landing Field San Clemente Island (Frederick Sherman Field)

San Clemente, 캘리포니아, 미국

위도: 33-01-16N, 경도: 118-34-52W, 고도: 55m

현재 날씨관측

예보는 4 시간 36분 전, 14:56시(UTC)에 발표되었습니다.
서남서5kt
온도 15°C
습도 77%
기압 1016 hPa
시정: 16.1km
고도 1500ft 상공 흐림

METAR: KNUC 131456Z 25005KT 10SM OVC015 15/11 A3000 RMK SLP156 T01500111 52010

시각: 12:32 (19:32 UTC)

예보

예보 대상 시간: 13일 15시부터 14일 15시까지 (UTC)
서남서5kt
시정 10km 이상
고도 1400ft 상공 흐림
13일 1800시부터 (UTC)
10kt
시정 10km 이상
고도 1600ft 상공 구름 많음
14일 0300시부터 (UTC)
8kt
시정 10km 이상
고도 500ft 상공 흐림

TAF: KNUC 1315/1415 25005KT 9999 OVC014 QNH2994INS FM131800 28010KT 9999 BKN016 QNH2994INS FM140300 28008KT 9999 OVC005 QNH2992INS TX20/1321Z T13/1413Z FS30224

4,000개 이상의 공항 관측 자료 및 예보 (METAR 및 TAF 보고).

지도상에서 검색 가능한 기상관측소가 노란 점과 빨간 점으로 표시되어 있습니다.

기상관측소 명을 보려면 표시 위로 마우스를 이동하세요.

날씨 관측과 예보를 보려면 클릭하세요.

지도 변경 : 확대하려면 엑스 표시가 있는 녹색 버튼, 축소하려면 빼기 표시가 있는 녹색 버튼, 다음 페이지의 지도를 보려면 녹색 화살표를 클릭하세요.


METAR-TAF: